sensor_id;sensor_type;location;lat;lon;timestamp;temperature;humidity
45643;DHT22;31358;46.008;11.144;2023-03-11T00:02:14;9.40;99.90
45643;DHT22;31358;46.008;11.144;2023-03-11T00:04:39;9.50;99.90
45643;DHT22;31358;46.008;11.144;2023-03-11T00:07:07;9.70;99.90
45643;DHT22;31358;46.008;11.144;2023-03-11T00:09:33;9.80;99.90
45643;DHT22;31358;46.008;11.144;2023-03-11T00:11:59;9.70;99.90
45643;DHT22;31358;46.008;11.144;2023-03-11T00:14:25;9.50;99.90
45643;DHT22;31358;46.008;11.144;2023-03-11T00:16:50;9.40;99.90
45643;DHT22;31358;46.008;11.144;2023-03-11T00:19:16;9.30;99.90
45643;DHT22;31358;46.008;11.144;2023-03-11T00:21:42;9.30;99.90
45643;DHT22;31358;46.008;11.144;2023-03-11T00:24:07;9.40;99.90
45643;DHT22;31358;46.008;11.144;2023-03-11T00:26:33;9.40;99.90
45643;DHT22;31358;46.008;11.144;2023-03-11T00:28:59;9.40;99.90
45643;DHT22;31358;46.008;11.144;2023-03-11T00:31:24;9.30;99.90
45643;DHT22;31358;46.008;11.144;2023-03-11T00:33:53;9.30;99.90
45643;DHT22;31358;46.008;11.144;2023-03-11T00:36:32;9.30;99.90
45643;DHT22;31358;46.008;11.144;2023-03-11T00:39:01;9.40;99.90
45643;DHT22;31358;46.008;11.144;2023-03-11T00:41:33;9.20;99.90
45643;DHT22;31358;46.008;11.144;2023-03-11T00:43:59;9.00;99.90
45643;DHT22;31358;46.008;11.144;2023-03-11T00:46:26;8.90;99.90
45643;DHT22;31358;46.008;11.144;2023-03-11T00:48:51;8.80;99.90
45643;DHT22;31358;46.008;11.144;2023-03-11T00:51:17;8.90;99.90
45643;DHT22;31358;46.008;11.144;2023-03-11T00:53:43;9.20;99.90
45643;DHT22;31358;46.008;11.144;2023-03-11T00:56:14;9.30;99.90
45643;DHT22;31358;46.008;11.144;2023-03-11T00:58:42;9.30;99.90
45643;DHT22;31358;46.008;11.144;2023-03-11T01:01:09;9.30;99.90
45643;DHT22;31358;46.008;11.144;2023-03-11T01:03:35;9.30;99.90
45643;DHT22;31358;46.008;11.144;2023-03-11T01:06:01;9.20;99.90
45643;DHT22;31358;46.008;11.144;2023-03-11T01:08:27;8.90;99.90
45643;DHT22;31358;46.008;11.144;2023-03-11T01:10:54;9.00;99.90
45643;DHT22;31358;46.008;11.144;2023-03-11T01:13:20;8.90;99.90
45643;DHT22;31358;46.008;11.144;2023-03-11T01:15:45;8.80;99.90
45643;DHT22;31358;46.008;11.144;2023-03-11T01:18:11;8.90;99.90
45643;DHT22;31358;46.008;11.144;2023-03-11T01:20:38;8.80;99.90
45643;DHT22;31358;46.008;11.144;2023-03-11T01:23:05;8.70;99.90
45643;DHT22;31358;46.008;11.144;2023-03-11T01:25:31;8.90;99.90
45643;DHT22;31358;46.008;11.144;2023-03-11T01:27:57;8.80;99.90
45643;DHT22;31358;46.008;11.144;2023-03-11T01:30:23;8.70;99.90
45643;DHT22;31358;46.008;11.144;2023-03-11T01:32:50;8.40;99.90
45643;DHT22;31358;46.008;11.144;2023-03-11T01:35:18;8.40;99.90
45643;DHT22;31358;46.008;11.144;2023-03-11T01:37:44;8.60;99.90
45643;DHT22;31358;46.008;11.144;2023-03-11T01:40:18;8.60;99.90
45643;DHT22;31358;46.008;11.144;2023-03-11T01:42:44;8.60;99.90
45643;DHT22;31358;46.008;11.144;2023-03-11T01:47:53;8.40;99.90
45643;DHT22;31358;46.008;11.144;2023-03-11T01:50:19;8.70;99.90
45643;DHT22;31358;46.008;11.144;2023-03-11T01:52:45;8.40;99.90
45643;DHT22;31358;46.008;11.144;2023-03-11T01:55:12;8.20;99.90
45643;DHT22;31358;46.008;11.144;2023-03-11T01:57:40;8.10;99.90
45643;DHT22;31358;46.008;11.144;2023-03-11T02:00:09;8.10;99.90
45643;DHT22;31358;46.008;11.144;2023-03-11T02:02:41;8.30;99.90
45643;DHT22;31358;46.008;11.144;2023-03-11T02:05:07;8.40;99.90
45643;DHT22;31358;46.008;11.144;2023-03-11T02:07:33;8.20;99.90
45643;DHT22;31358;46.008;11.144;2023-03-11T02:09:59;8.00;99.90
45643;DHT22;31358;46.008;11.144;2023-03-11T02:12:28;7.90;99.90
45643;DHT22;31358;46.008;11.144;2023-03-11T02:14:55;7.80;99.90
45643;DHT22;31358;46.008;11.144;2023-03-11T02:17:21;7.90;99.90
45643;DHT22;31358;46.008;11.144;2023-03-11T02:22:47;8.30;99.90
45643;DHT22;31358;46.008;11.144;2023-03-11T02:25:36;8.20;99.90
45643;DHT22;31358;46.008;11.144;2023-03-11T02:28:07;8.10;99.90
45643;DHT22;31358;46.008;11.144;2023-03-11T02:30:34;7.90;99.90
45643;DHT22;31358;46.008;11.144;2023-03-11T02:33:00;7.90;99.90
45643;DHT22;31358;46.008;11.144;2023-03-11T02:35:26;7.90;99.90
45643;DHT22;31358;46.008;11.144;2023-03-11T02:37:53;8.00;99.90
45643;DHT22;31358;46.008;11.144;2023-03-11T02:42:48;7.90;99.90
45643;DHT22;31358;46.008;11.144;2023-03-11T02:45:17;8.00;99.90
45643;DHT22;31358;46.008;11.144;2023-03-11T02:47:44;8.20;99.90
45643;DHT22;31358;46.008;11.144;2023-03-11T02:50:13;8.00;99.90
45643;DHT22;31358;46.008;11.144;2023-03-11T02:52:39;8.00;99.90
45643;DHT22;31358;46.008;11.144;2023-03-11T02:55:06;7.90;99.90
45643;DHT22;31358;46.008;11.144;2023-03-11T02:57:32;8.00;99.90
45643;DHT22;31358;46.008;11.144;2023-03-11T02:59:58;8.10;99.90
45643;DHT22;31358;46.008;11.144;2023-03-11T03:02:26;8.00;99.90
45643;DHT22;31358;46.008;11.144;2023-03-11T03:04:52;7.90;99.90
45643;DHT22;31358;46.008;11.144;2023-03-11T03:07:17;7.90;99.90
45643;DHT22;31358;46.008;11.144;2023-03-11T03:09:43;7.70;99.90
45643;DHT22;31358;46.008;11.144;2023-03-11T03:12:09;7.70;99.90
45643;DHT22;31358;46.008;11.144;2023-03-11T03:14:35;7.80;99.90
45643;DHT22;31358;46.008;11.144;2023-03-11T03:17:01;7.70;99.50
45643;DHT22;31358;46.008;11.144;2023-03-11T03:19:27;7.70;99.90
45643;DHT22;31358;46.008;11.144;2023-03-11T03:21:52;7.70;99.90
45643;DHT22;31358;46.008;11.144;2023-03-11T03:24:18;7.80;99.90
45643;DHT22;31358;46.008;11.144;2023-03-11T03:26:43;7.80;99.50
45643;DHT22;31358;46.008;11.144;2023-03-11T03:29:09;7.60;99.80
45643;DHT22;31358;46.008;11.144;2023-03-11T03:31:35;7.50;99.90
45643;DHT22;31358;46.008;11.144;2023-03-11T03:34:00;7.40;99.90
45643;DHT22;31358;46.008;11.144;2023-03-11T03:36:26;7.60;99.90
45643;DHT22;31358;46.008;11.144;2023-03-11T03:38:56;7.90;98.90
45643;DHT22;31358;46.008;11.144;2023-03-11T03:41:22;8.00;99.40
45643;DHT22;31358;46.008;11.144;2023-03-11T03:43:48;7.90;99.90
45643;DHT22;31358;46.008;11.144;2023-03-11T03:46:14;7.90;99.90
45643;DHT22;31358;46.008;11.144;2023-03-11T03:48:39;7.70;99.90
45643;DHT22;31358;46.008;11.144;2023-03-11T03:51:10;7.60;98.80
45643;DHT22;31358;46.008;11.144;2023-03-11T03:53:37;7.50;99.40
45643;DHT22;31358;46.008;11.144;2023-03-11T03:56:07;7.60;99.40
45643;DHT22;31358;46.008;11.144;2023-03-11T03:58:34;7.70;99.90
45643;DHT22;31358;46.008;11.144;2023-03-11T04:00:59;7.70;99.90
45643;DHT22;31358;46.008;11.144;2023-03-11T04:03:26;7.60;99.90
45643;DHT22;31358;46.008;11.144;2023-03-11T04:05:52;7.50;99.80
45643;DHT22;31358;46.008;11.144;2023-03-11T04:08:18;7.50;99.50
45643;DHT22;31358;46.008;11.144;2023-03-11T04:10:47;7.50;98.70
45643;DHT22;31358;46.008;11.144;2023-03-11T04:13:20;7.50;98.80
45643;DHT22;31358;46.008;11.144;2023-03-11T04:15:45;7.50;98.80
45643;DHT22;31358;46.008;11.144;2023-03-11T04:18:11;7.70;98.80
45643;DHT22;31358;46.008;11.144;2023-03-11T04:20:38;7.80;98.60
45643;DHT22;31358;46.008;11.144;2023-03-11T04:23:03;7.60;98.30
45643;DHT22;31358;46.008;11.144;2023-03-11T04:25:29;7.50;98.30
45643;DHT22;31358;46.008;11.144;2023-03-11T04:27:55;7.60;98.60
45643;DHT22;31358;46.008;11.144;2023-03-11T04:30:20;7.50;98.80
45643;DHT22;31358;46.008;11.144;2023-03-11T04:32:46;7.50;99.90
45643;DHT22;31358;46.008;11.144;2023-03-11T04:35:12;7.60;98.60
45643;DHT22;31358;46.008;11.144;2023-03-11T04:37:37;7.60;98.90
45643;DHT22;31358;46.008;11.144;2023-03-11T04:40:03;7.50;98.70
45643;DHT22;31358;46.008;11.144;2023-03-11T04:42:31;7.40;99.00
45643;DHT22;31358;46.008;11.144;2023-03-11T04:44:56;7.30;99.20
45643;DHT22;31358;46.008;11.144;2023-03-11T04:47:22;7.20;99.90
45643;DHT22;31358;46.008;11.144;2023-03-11T04:49:48;7.20;99.90
45643;DHT22;31358;46.008;11.144;2023-03-11T04:52:14;7.30;99.90
45643;DHT22;31358;46.008;11.144;2023-03-11T04:54:39;7.20;99.10
45643;DHT22;31358;46.008;11.144;2023-03-11T04:57:05;7.40;98.30
45643;DHT22;31358;46.008;11.144;2023-03-11T04:59:31;7.50;98.50
45643;DHT22;31358;46.008;11.144;2023-03-11T05:01:56;7.60;98.60
45643;DHT22;31358;46.008;11.144;2023-03-11T05:04:22;7.60;97.60
45643;DHT22;31358;46.008;11.144;2023-03-11T05:06:48;7.50;97.90
45643;DHT22;31358;46.008;11.144;2023-03-11T05:09:15;7.40;98.30
45643;DHT22;31358;46.008;11.144;2023-03-11T05:11:41;7.40;99.50
45643;DHT22;31358;46.008;11.144;2023-03-11T05:14:07;7.30;99.70
45643;DHT22;31358;46.008;11.144;2023-03-11T05:16:32;7.10;99.60
45643;DHT22;31358;46.008;11.144;2023-03-11T05:18:58;7.10;99.90
45643;DHT22;31358;46.008;11.144;2023-03-11T05:21:24;7.10;98.80
45643;DHT22;31358;46.008;11.144;2023-03-11T05:23:49;7.00;98.90
45643;DHT22;31358;46.008;11.144;2023-03-11T05:26:15;7.00;98.80
45643;DHT22;31358;46.008;11.144;2023-03-11T05:28:41;7.10;98.00
45643;DHT22;31358;46.008;11.144;2023-03-11T05:31:08;7.30;98.40
45643;DHT22;31358;46.008;11.144;2023-03-11T05:33:34;7.50;96.80
45643;DHT22;31358;46.008;11.144;2023-03-11T05:36:07;7.80;96.40
45643;DHT22;31358;46.008;11.144;2023-03-11T05:38:37;8.00;97.50
45643;DHT22;31358;46.008;11.144;2023-03-11T05:41:03;7.80;97.10
45643;DHT22;31358;46.008;11.144;2023-03-11T05:43:30;7.80;97.00
45643;DHT22;31358;46.008;11.144;2023-03-11T05:45:56;7.80;95.90
45643;DHT22;31358;46.008;11.144;2023-03-11T05:48:21;7.70;96.30
45643;DHT22;31358;46.008;11.144;2023-03-11T05:50:47;7.60;97.30
45643;DHT22;31358;46.008;11.144;2023-03-11T05:53:13;7.40;97.40
45643;DHT22;31358;46.008;11.144;2023-03-11T05:55:38;7.30;97.90
45643;DHT22;31358;46.008;11.144;2023-03-11T05:58:04;6.90;97.90
45643;DHT22;31358;46.008;11.144;2023-03-11T06:00:30;6.70;98.20
45643;DHT22;31358;46.008;11.144;2023-03-11T06:02:56;6.80;97.60
45643;DHT22;31358;46.008;11.144;2023-03-11T06:05:21;6.90;97.10
45643;DHT22;31358;46.008;11.144;2023-03-11T06:07:47;7.00;97.70
45643;DHT22;31358;46.008;11.144;2023-03-11T06:10:13;7.00;97.60
45643;DHT22;31358;46.008;11.144;2023-03-11T06:12:39;7.10;97.70
45643;DHT22;31358;46.008;11.144;2023-03-11T06:15:06;7.20;97.80
45643;DHT22;31358;46.008;11.144;2023-03-11T06:17:31;7.40;97.30
45643;DHT22;31358;46.008;11.144;2023-03-11T06:19:57;7.40;97.10
45643;DHT22;31358;46.008;11.144;2023-03-11T06:22:23;7.50;98.30
45643;DHT22;31358;46.008;11.144;2023-03-11T06:24:49;7.30;98.90
45643;DHT22;31358;46.008;11.144;2023-03-11T06:27:14;6.80;99.90
45643;DHT22;31358;46.008;11.144;2023-03-11T06:29:40;6.70;99.90
45643;DHT22;31358;46.008;11.144;2023-03-11T06:32:06;6.80;99.20
45643;DHT22;31358;46.008;11.144;2023-03-11T06:34:31;6.90;98.50
45643;DHT22;31358;46.008;11.144;2023-03-11T06:36:57;7.20;98.00
45643;DHT22;31358;46.008;11.144;2023-03-11T06:39:24;7.50;97.60
45643;DHT22;31358;46.008;11.144;2023-03-11T06:41:50;7.50;97.20
45643;DHT22;31358;46.008;11.144;2023-03-11T06:44:15;7.50;97.80
45643;DHT22;31358;46.008;11.144;2023-03-11T06:46:41;7.40;97.40
45643;DHT22;31358;46.008;11.144;2023-03-11T06:49:07;7.30;97.70
45643;DHT22;31358;46.008;11.144;2023-03-11T06:51:33;7.20;97.60
45643;DHT22;31358;46.008;11.144;2023-03-11T06:53:59;7.60;97.70
45643;DHT22;31358;46.008;11.144;2023-03-11T06:56:24;7.70;97.40
45643;DHT22;31358;46.008;11.144;2023-03-11T06:58:50;7.90;97.70
45643;DHT22;31358;46.008;11.144;2023-03-11T07:01:21;7.50;99.30
45643;DHT22;31358;46.008;11.144;2023-03-11T07:03:48;6.90;99.90
45643;DHT22;31358;46.008;11.144;2023-03-11T07:06:24;6.80;99.90
45643;DHT22;31358;46.008;11.144;2023-03-11T07:08:51;6.90;99.90
45643;DHT22;31358;46.008;11.144;2023-03-11T07:11:28;7.10;99.90
45643;DHT22;31358;46.008;11.144;2023-03-11T07:13:54;7.40;99.50
45643;DHT22;31358;46.008;11.144;2023-03-11T07:16:25;7.70;99.60
45643;DHT22;31358;46.008;11.144;2023-03-11T07:18:55;7.70;99.40
45643;DHT22;31358;46.008;11.144;2023-03-11T07:21:22;7.80;98.90
45643;DHT22;31358;46.008;11.144;2023-03-11T07:23:52;8.00;98.40
45643;DHT22;31358;46.008;11.144;2023-03-11T07:26:18;8.10;97.60
45643;DHT22;31358;46.008;11.144;2023-03-11T07:28:44;8.20;97.90
45643;DHT22;31358;46.008;11.144;2023-03-11T07:31:18;8.20;98.50
45643;DHT22;31358;46.008;11.144;2023-03-11T07:33:45;7.90;99.20
45643;DHT22;31358;46.008;11.144;2023-03-11T07:36:13;8.20;99.20
45643;DHT22;31358;46.008;11.144;2023-03-11T07:38:40;8.40;99.00
45643;DHT22;31358;46.008;11.144;2023-03-11T07:41:06;8.40;99.50
45643;DHT22;31358;46.008;11.144;2023-03-11T07:43:32;8.20;99.90
45643;DHT22;31358;46.008;11.144;2023-03-11T07:48:37;8.30;99.90
45643;DHT22;31358;46.008;11.144;2023-03-11T07:53:33;8.90;98.50
45643;DHT22;31358;46.008;11.144;2023-03-11T07:55:59;9.00;98.70
45643;DHT22;31358;46.008;11.144;2023-03-11T07:58:25;8.80;99.60
45643;DHT22;31358;46.008;11.144;2023-03-11T08:00:51;8.70;99.70
45643;DHT22;31358;46.008;11.144;2023-03-11T08:03:17;8.80;99.30
45643;DHT22;31358;46.008;11.144;2023-03-11T08:05:43;8.90;99.60
45643;DHT22;31358;46.008;11.144;2023-03-11T08:08:09;8.80;99.70
45643;DHT22;31358;46.008;11.144;2023-03-11T08:10:38;8.70;99.80
45643;DHT22;31358;46.008;11.144;2023-03-11T08:13:04;8.90;99.90
45643;DHT22;31358;46.008;11.144;2023-03-11T08:15:29;9.00;99.50
45643;DHT22;31358;46.008;11.144;2023-03-11T08:17:55;9.30;98.40
45643;DHT22;31358;46.008;11.144;2023-03-11T08:20:21;9.50;97.40
45643;DHT22;31358;46.008;11.144;2023-03-11T08:22:46;9.70;95.90
45643;DHT22;31358;46.008;11.144;2023-03-11T08:25:12;9.80;97.00
45643;DHT22;31358;46.008;11.144;2023-03-11T08:27:38;9.70;98.00
45643;DHT22;31358;46.008;11.144;2023-03-11T08:30:05;9.60;98.60
45643;DHT22;31358;46.008;11.144;2023-03-11T08:32:31;9.50;98.40
45643;DHT22;31358;46.008;11.144;2023-03-11T08:34:58;9.50;98.20
45643;DHT22;31358;46.008;11.144;2023-03-11T08:37:23;9.60;98.20
45643;DHT22;31358;46.008;11.144;2023-03-11T08:39:49;9.70;98.10
45643;DHT22;31358;46.008;11.144;2023-03-11T08:42:16;9.90;96.60
45643;DHT22;31358;46.008;11.144;2023-03-11T08:44:42;10.10;95.50
45643;DHT22;31358;46.008;11.144;2023-03-11T08:47:08;10.20;94.30
45643;DHT22;31358;46.008;11.144;2023-03-11T08:49:34;10.40;92.70
45643;DHT22;31358;46.008;11.144;2023-03-11T08:52:01;10.70;92.20
45643;DHT22;31358;46.008;11.144;2023-03-11T08:54:27;10.80;91.50
45643;DHT22;31358;46.008;11.144;2023-03-11T08:56:53;11.10;91.10
45643;DHT22;31358;46.008;11.144;2023-03-11T08:59:18;11.30;90.00
45643;DHT22;31358;46.008;11.144;2023-03-11T09:01:44;11.20;91.30
45643;DHT22;31358;46.008;11.144;2023-03-11T09:04:11;11.40;89.00
45643;DHT22;31358;46.008;11.144;2023-03-11T09:06:41;11.80;89.10
45643;DHT22;31358;46.008;11.144;2023-03-11T09:09:08;11.80;89.40
45643;DHT22;31358;46.008;11.144;2023-03-11T09:11:34;11.90;87.30
45643;DHT22;31358;46.008;11.144;2023-03-11T09:14:02;11.90;86.10
45643;DHT22;31358;46.008;11.144;2023-03-11T09:16:27;12.00;86.60
45643;DHT22;31358;46.008;11.144;2023-03-11T09:18:53;12.10;86.10
45643;DHT22;31358;46.008;11.144;2023-03-11T09:21:19;12.40;83.30
45643;DHT22;31358;46.008;11.144;2023-03-11T09:23:45;12.60;84.00
45643;DHT22;31358;46.008;11.144;2023-03-11T09:26:11;12.70;82.90
45643;DHT22;31358;46.008;11.144;2023-03-11T09:28:38;12.70;83.60
45643;DHT22;31358;46.008;11.144;2023-03-11T09:31:04;12.70;83.00
45643;DHT22;31358;46.008;11.144;2023-03-11T09:33:30;12.80;81.30
45643;DHT22;31358;46.008;11.144;2023-03-11T09:35:57;12.90;82.10
45643;DHT22;31358;46.008;11.144;2023-03-11T09:38:23;13.20;82.60
45643;DHT22;31358;46.008;11.144;2023-03-11T09:52:12;13.60;79.60
45643;DHT22;31358;46.008;11.144;2023-03-11T09:54:46;13.60;78.20
45643;DHT22;31358;46.008;11.144;2023-03-11T09:57:17;13.60;77.70
45643;DHT22;31358;46.008;11.144;2023-03-11T09:59:44;13.90;77.90
45643;DHT22;31358;46.008;11.144;2023-03-11T10:02:19;14.00;76.60
45643;DHT22;31358;46.008;11.144;2023-03-11T10:07:37;14.20;77.30
45643;DHT22;31358;46.008;11.144;2023-03-11T10:10:04;14.20;77.00
45643;DHT22;31358;46.008;11.144;2023-03-11T10:13:01;14.40;76.30
45643;DHT22;31358;46.008;11.144;2023-03-11T10:26:35;14.80;75.20
45643;DHT22;31358;46.008;11.144;2023-03-11T10:29:27;14.70;75.40
45643;DHT22;31358;46.008;11.144;2023-03-11T10:32:09;14.60;75.10
45643;DHT22;31358;46.008;11.144;2023-03-11T10:37:28;14.80;75.90
45643;DHT22;31358;46.008;11.144;2023-03-11T10:40:06;14.70;74.90
45643;DHT22;31358;46.008;11.144;2023-03-11T10:42:33;14.90;76.50
45643;DHT22;31358;46.008;11.144;2023-03-11T10:44:59;15.00;74.50
45643;DHT22;31358;46.008;11.144;2023-03-11T10:47:25;15.40;74.70
45643;DHT22;31358;46.008;11.144;2023-03-11T10:49:51;15.50;75.60
45643;DHT22;31358;46.008;11.144;2023-03-11T10:52:18;15.30;75.00
45643;DHT22;31358;46.008;11.144;2023-03-11T10:54:46;15.40;74.50
45643;DHT22;31358;46.008;11.144;2023-03-11T10:57:36;15.30;74.30
45643;DHT22;31358;46.008;11.144;2023-03-11T11:00:07;15.40;74.40
45643;DHT22;31358;46.008;11.144;2023-03-11T11:02:52;15.50;73.80
45643;DHT22;31358;46.008;11.144;2023-03-11T11:07:49;15.70;73.90
45643;DHT22;31358;46.008;11.144;2023-03-11T11:10:25;16.00;74.10
45643;DHT22;31358;46.008;11.144;2023-03-11T11:17:47;16.30;73.30
45643;DHT22;31358;46.008;11.144;2023-03-11T11:20:18;16.30;72.30
45643;DHT22;31358;46.008;11.144;2023-03-11T11:22:58;16.30;71.20
45643;DHT22;31358;46.008;11.144;2023-03-11T11:25:30;16.50;72.20
45643;DHT22;31358;46.008;11.144;2023-03-11T11:28:14;16.40;70.40
45643;DHT22;31358;46.008;11.144;2023-03-11T11:30:55;16.50;70.80
45643;DHT22;31358;46.008;11.144;2023-03-11T11:33:39;16.60;71.50
45643;DHT22;31358;46.008;11.144;2023-03-11T11:36:11;16.70;69.90
45643;DHT22;31358;46.008;11.144;2023-03-11T11:38:38;17.00;69.30
45643;DHT22;31358;46.008;11.144;2023-03-11T11:41:04;17.10;68.90
45643;DHT22;31358;46.008;11.144;2023-03-11T11:43:51;17.30;70.90
45643;DHT22;31358;46.008;11.144;2023-03-11T11:47:02;17.40;68.90
45643;DHT22;31358;46.008;11.144;2023-03-11T11:49:30;17.30;67.50
45643;DHT22;31358;46.008;11.144;2023-03-11T11:52:15;17.30;68.80
45643;DHT22;31358;46.008;11.144;2023-03-11T11:55:02;17.70;68.80
45643;DHT22;31358;46.008;11.144;2023-03-11T11:57:28;17.80;68.20
45643;DHT22;31358;46.008;11.144;2023-03-11T11:59:54;17.90;69.60
45643;DHT22;31358;46.008;11.144;2023-03-11T12:05:29;17.80;66.10
45643;DHT22;31358;46.008;11.144;2023-03-11T12:11:03;17.80;67.70
45643;DHT22;31358;46.008;11.144;2023-03-11T12:13:52;17.70;67.90
45643;DHT22;31358;46.008;11.144;2023-03-11T12:21:49;18.40;67.20
45643;DHT22;31358;46.008;11.144;2023-03-11T12:27:17;18.20;67.50
45643;DHT22;31358;46.008;11.144;2023-03-11T12:29:47;18.50;66.60
45643;DHT22;31358;46.008;11.144;2023-03-11T12:32:41;18.10;65.60
45643;DHT22;31358;46.008;11.144;2023-03-11T12:37:42;18.50;66.30
45643;DHT22;31358;46.008;11.144;2023-03-11T12:40:46;18.50;66.70
45643;DHT22;31358;46.008;11.144;2023-03-11T12:45:59;18.80;65.70
45643;DHT22;31358;46.008;11.144;2023-03-11T12:50:55;18.80;65.80
45643;DHT22;31358;46.008;11.144;2023-03-11T12:56:15;18.90;65.00
45643;DHT22;31358;46.008;11.144;2023-03-11T13:02:10;19.00;65.60
45643;DHT22;31358;46.008;11.144;2023-03-11T13:23:19;19.00;63.40
45643;DHT22;31358;46.008;11.144;2023-03-11T13:34:14;18.90;62.80
45643;DHT22;31358;46.008;11.144;2023-03-11T13:39:44;19.10;62.90
45643;DHT22;31358;46.008;11.144;2023-03-11T13:42:41;19.30;63.10
45643;DHT22;31358;46.008;11.144;2023-03-11T13:45:07;19.50;63.20
45643;DHT22;31358;46.008;11.144;2023-03-11T13:47:37;19.50;63.30
45643;DHT22;31358;46.008;11.144;2023-03-11T13:50:37;19.30;62.20
45643;DHT22;31358;46.008;11.144;2023-03-11T13:53:14;19.60;63.40
45643;DHT22;31358;46.008;11.144;2023-03-11T13:55:44;19.50;62.70
45643;DHT22;31358;46.008;11.144;2023-03-11T13:58:27;19.50;62.80
45643;DHT22;31358;46.008;11.144;2023-03-11T14:00:58;19.60;63.60
45643;DHT22;31358;46.008;11.144;2023-03-11T14:03:26;19.70;63.00
45643;DHT22;31358;46.008;11.144;2023-03-11T14:06:02;19.60;61.90
45643;DHT22;31358;46.008;11.144;2023-03-11T14:08:37;19.40;62.00
45643;DHT22;31358;46.008;11.144;2023-03-11T14:11:24;19.60;63.50
45643;DHT22;31358;46.008;11.144;2023-03-11T14:13:51;19.50;61.80
45643;DHT22;31358;46.008;11.144;2023-03-11T14:19:13;19.80;61.50
45643;DHT22;31358;46.008;11.144;2023-03-11T14:21:48;19.70;61.20
45643;DHT22;31358;46.008;11.144;2023-03-11T14:24:23;19.60;62.20
45643;DHT22;31358;46.008;11.144;2023-03-11T14:26:50;19.80;62.80
45643;DHT22;31358;46.008;11.144;2023-03-11T14:29:31;19.70;61.60
45643;DHT22;31358;46.008;11.144;2023-03-11T14:31:57;19.60;61.50
45643;DHT22;31358;46.008;11.144;2023-03-11T14:34:27;19.90;61.40
45643;DHT22;31358;46.008;11.144;2023-03-11T14:36:56;19.70;61.20
45643;DHT22;31358;46.008;11.144;2023-03-11T14:39:26;19.60;61.10
45643;DHT22;31358;46.008;11.144;2023-03-11T14:41:57;19.50;61.20
45643;DHT22;31358;46.008;11.144;2023-03-11T14:44:25;19.70;63.10
45643;DHT22;31358;46.008;11.144;2023-03-11T14:46:57;19.60;60.90
45643;DHT22;31358;46.008;11.144;2023-03-11T14:49:24;19.70;62.40
45643;DHT22;31358;46.008;11.144;2023-03-11T14:51:55;19.70;62.10
45643;DHT22;31358;46.008;11.144;2023-03-11T14:54:25;20.00;62.20
45643;DHT22;31358;46.008;11.144;2023-03-11T14:57:04;19.50;60.50
45643;DHT22;31358;46.008;11.144;2023-03-11T14:59:32;19.20;61.00
45643;DHT22;31358;46.008;11.144;2023-03-11T15:04:48;19.10;61.10
45643;DHT22;31358;46.008;11.144;2023-03-11T15:07:14;19.10;61.10
45643;DHT22;31358;46.008;11.144;2023-03-11T15:09:41;19.20;61.90
45643;DHT22;31358;46.008;11.144;2023-03-11T15:12:28;19.30;62.00
45643;DHT22;31358;46.008;11.144;2023-03-11T15:14:53;19.40;62.00
45643;DHT22;31358;46.008;11.144;2023-03-11T15:19:50;18.90;61.20
45643;DHT22;31358;46.008;11.144;2023-03-11T15:24:58;19.10;61.80
45643;DHT22;31358;46.008;11.144;2023-03-11T15:27:28;19.20;61.20
45643;DHT22;31358;46.008;11.144;2023-03-11T15:29:55;19.10;61.50
45643;DHT22;31358;46.008;11.144;2023-03-11T15:35:01;19.00;62.10
45643;DHT22;31358;46.008;11.144;2023-03-11T15:37:29;19.10;62.00
45643;DHT22;31358;46.008;11.144;2023-03-11T15:39:56;19.00;61.90
45643;DHT22;31358;46.008;11.144;2023-03-11T15:42:26;19.00;61.90
45643;DHT22;31358;46.008;11.144;2023-03-11T15:47:36;19.10;62.10
45643;DHT22;31358;46.008;11.144;2023-03-11T15:50:19;19.00;61.80
45643;DHT22;31358;46.008;11.144;2023-03-11T15:52:47;18.80;61.70
45643;DHT22;31358;46.008;11.144;2023-03-11T15:55:13;18.80;61.50
45643;DHT22;31358;46.008;11.144;2023-03-11T15:57:39;18.80;62.80
45643;DHT22;31358;46.008;11.144;2023-03-11T16:00:14;18.60;63.20
45643;DHT22;31358;46.008;11.144;2023-03-11T16:02:40;18.70;63.00
45643;DHT22;31358;46.008;11.144;2023-03-11T16:05:26;18.70;62.50
45643;DHT22;31358;46.008;11.144;2023-03-11T16:07:53;18.50;62.00
45643;DHT22;31358;46.008;11.144;2023-03-11T16:10:21;18.30;61.70
45643;DHT22;31358;46.008;11.144;2023-03-11T16:12:48;18.10;62.20
45643;DHT22;31358;46.008;11.144;2023-03-11T16:15:34;18.00;62.40
45643;DHT22;31358;46.008;11.144;2023-03-11T16:18:03;17.80;62.90
45643;DHT22;31358;46.008;11.144;2023-03-11T16:20:49;17.70;63.00
45643;DHT22;31358;46.008;11.144;2023-03-11T16:23:22;17.70;62.90
45643;DHT22;31358;46.008;11.144;2023-03-11T16:25:48;17.70;62.80
45643;DHT22;31358;46.008;11.144;2023-03-11T16:28:15;17.60;63.00
45643;DHT22;31358;46.008;11.144;2023-03-11T16:30:41;17.60;63.20
45643;DHT22;31358;46.008;11.144;2023-03-11T16:33:07;17.50;63.40
45643;DHT22;31358;46.008;11.144;2023-03-11T16:35:32;17.50;63.60
45643;DHT22;31358;46.008;11.144;2023-03-11T16:37:58;17.40;63.70
45643;DHT22;31358;46.008;11.144;2023-03-11T16:40:25;17.30;64.10
45643;DHT22;31358;46.008;11.144;2023-03-11T16:43:00;17.20;64.50
45643;DHT22;31358;46.008;11.144;2023-03-11T16:45:26;17.10;64.90
45643;DHT22;31358;46.008;11.144;2023-03-11T16:47:52;17.10;64.40
45643;DHT22;31358;46.008;11.144;2023-03-11T16:50:18;17.20;63.70
45643;DHT22;31358;46.008;11.144;2023-03-11T16:52:45;17.20;64.00
45643;DHT22;31358;46.008;11.144;2023-03-11T16:55:11;17.20;64.10
45643;DHT22;31358;46.008;11.144;2023-03-11T16:57:37;17.10;64.20
45643;DHT22;31358;46.008;11.144;2023-03-11T17:00:05;17.20;64.10
45643;DHT22;31358;46.008;11.144;2023-03-11T17:02:32;17.10;64.10
45643;DHT22;31358;46.008;11.144;2023-03-11T17:04:57;16.90;64.70
45643;DHT22;31358;46.008;11.144;2023-03-11T17:07:23;16.90;64.60
45643;DHT22;31358;46.008;11.144;2023-03-11T17:09:49;16.70;65.20
45643;DHT22;31358;46.008;11.144;2023-03-11T17:12:16;16.50;65.70
45643;DHT22;31358;46.008;11.144;2023-03-11T17:14:44;16.30;66.50
45643;DHT22;31358;46.008;11.144;2023-03-11T17:17:10;16.10;67.00
45643;DHT22;31358;46.008;11.144;2023-03-11T17:19:36;15.90;67.30
45643;DHT22;31358;46.008;11.144;2023-03-11T17:22:02;15.80;67.70
45643;DHT22;31358;46.008;11.144;2023-03-11T17:24:28;15.80;67.20
45643;DHT22;31358;46.008;11.144;2023-03-11T17:26:54;15.70;68.40
45643;DHT22;31358;46.008;11.144;2023-03-11T17:29:20;15.50;68.80
45643;DHT22;31358;46.008;11.144;2023-03-11T17:31:45;15.30;69.20
45643;DHT22;31358;46.008;11.144;2023-03-11T17:34:11;15.30;69.00
45643;DHT22;31358;46.008;11.144;2023-03-11T17:36:37;15.20;69.10
45643;DHT22;31358;46.008;11.144;2023-03-11T17:39:02;15.00;68.90